Time;durP1;ratioP1;P1;durP2;ratioP2;P2;SDS_P1;SDS_P2;PMS_P1;PMS_P2;Temp;Humidity;BMP_temperature;BMP_pressure;BME280_temperature;BME280_humidity;BME280_pressure;Samples;Min_cycle;Max_cycle;Signal;HPM_P1;HPM_P2
2024/04/14 00:00:44;;;;;;;11.93;9.68;;;;;;;18.75;69.30;100517.97;5423645;26;19995;-64
2024/04/14 00:03:13;;;;;;;14.82;9.27;;;;;;;18.30;69.47;100520.03;5423872;26;20002;-64
2024/04/14 00:05:39;;;;;;;10.70;9.18;;;;;;;18.29;70.76;100526.44;5422111;26;19999;-64
2024/04/14 00:08:06;;;;;;;13.02;9.07;;;;;;;18.38;71.52;100527.94;5423767;26;20007;-64
2024/04/14 00:10:32;;;;;;;12.48;10.20;;;;;;;18.41;71.21;100513.31;5422823;26;19996;-64
2024/04/14 00:12:58;;;;;;;11.25;9.52;;;;;;;18.47;72.51;100509.88;5423562;26;19991;-63
2024/04/14 00:15:25;;;;;;;11.60;9.10;;;;;;;18.50;71.15;100512.16;5423204;26;19998;-64
2024/04/14 00:17:51;;;;;;;12.93;10.10;;;;;;;18.49;69.40;100513.19;5421788;26;20094;-64
2024/04/14 00:20:17;;;;;;;13.75;9.85;;;;;;;18.46;70.48;100518.94;5424401;26;20007;-64
2024/04/14 00:22:43;;;;;;;14.60;9.20;;;;;;;18.40;71.42;100514.34;5423597;26;19996;-65
2024/04/14 00:25:09;;;;;;;13.35;9.32;;;;;;;18.35;72.25;100509.56;5422298;26;19991;-65
2024/04/14 00:27:35;;;;;;;10.13;8.77;;;;;;;18.31;72.33;100515.50;5422244;26;19988;-64
2024/04/14 00:30:02;;;;;;;11.70;9.27;;;;;;;18.44;71.61;100510.25;5424252;26;20002;-64
2024/04/14 00:32:28;;;;;;;11.90;8.75;;;;;;;18.42;70.89;100510.44;5421102;26;19992;-64
2024/04/14 00:34:54;;;;;;;15.13;8.57;;;;;;;18.38;70.63;100513.72;5424338;26;19991;-64
2024/04/14 00:37:20;;;;;;;12.02;8.93;;;;;;;18.42;70.82;100512.31;5421372;26;19988;-64
2024/04/14 00:39:46;;;;;;;13.15;9.10;;;;;;;18.28;69.53;100519.41;5423492;26;20010;-64
2024/04/14 00:42:12;;;;;;;13.38;9.18;;;;;;;18.14;69.07;100518.47;5422554;26;19995;-64
2024/04/14 00:44:38;;;;;;;13.07;9.70;;;;;;;17.98;69.70;100520.56;5421847;26;20002;-65
2024/04/14 00:47:05;;;;;;;16.55;10.60;;;;;;;17.88;71.23;100518.22;5423069;26;19999;-64
2024/04/14 00:49:32;;;;;;;13.63;9.40;;;;;;;17.92;71.03;100521.34;5421892;26;20008;-65
2024/04/14 00:52:02;;;;;;;15.10;9.23;;;;;;;17.78;72.17;100515.00;5421771;26;20129;-64
2024/04/14 00:54:32;;;;;;;12.60;9.68;;;;;;;17.77;71.05;100519.53;5420661;26;20185;-64
2024/04/14 00:56:59;;;;;;;13.13;10.18;;;;;;;17.68;70.35;100519.81;5422036;26;20010;-64
2024/04/14 00:59:25;;;;;;;14.27;10.27;;;;;;;17.73;70.75;100520.09;5423843;26;20002;-64
2024/04/14 01:01:51;;;;;;;15.05;10.93;;;;;;;17.80;70.22;100516.47;5421868;26;19999;-64
2024/04/14 01:04:17;;;;;;;15.70;10.10;;;;;;;17.78;70.36;100515.84;5424698;26;19991;-64
2024/04/14 01:06:43;;;;;;;13.65;10.15;;;;;;;17.76;70.81;100514.38;5421469;26;20281;-64
2024/04/14 01:09:09;;;;;;;13.27;9.45;;;;;;;17.78;71.43;100509.66;5424458;26;20011;-64
2024/04/14 01:11:35;;;;;;;12.07;9.20;;;;;;;17.73;71.45;100510.22;5421411;26;20235;-64
2024/04/14 01:14:05;;;;;;;16.52;10.20;;;;;;;17.70;72.20;100512.44;5422678;26;20002;-64
2024/04/14 01:16:36;;;;;;;12.40;9.40;;;;;;;17.65;71.94;100512.13;5421948;26;20148;-64
2024/04/14 01:19:06;;;;;;;12.23;9.50;;;;;;;17.49;71.23;100513.19;5423098;26;20222;-64
2024/04/14 01:21:35;;;;;;;13.68;10.00;;;;;;;17.46;70.55;100517.06;5422347;26;20003;-64
2024/04/14 01:24:01;;;;;;;12.05;9.00;;;;;;;17.42;68.96;100520.31;5422651;26;19999;-64
2024/04/14 01:26:28;;;;;;;12.18;9.45;;;;;;;17.32;69.23;100515.25;5422891;26;20000;-64
2024/04/14 01:28:53;;;;;;;16.10;9.57;;;;;;;17.39;70.42;100516.16;5422310;26;19999;-64
2024/04/14 01:31:19;;;;;;;13.63;9.50;;;;;;;17.34;71.96;100518.56;5422788;26;19996;-64
2024/04/14 01:33:46;;;;;;;11.73;8.85;;;;;;;17.39;72.57;100516.16;5421569;26;19999;-64
2024/04/14 01:36:12;;;;;;;12.35;9.38;;;;;;;17.42;70.87;100515.78;5423065;26;20530;-64
2024/04/14 01:38:38;;;;;;;14.65;9.73;;;;;;;17.27;71.48;100514.16;5422669;26;19987;-64
2024/04/14 01:41:04;;;;;;;10.90;9.27;;;;;;;17.15;72.63;100513.78;5423960;26;19992;-65
2024/04/14 01:43:30;;;;;;;14.95;9.30;;;;;;;17.16;72.28;100508.25;5418282;26;20010;-64
2024/04/14 01:45:56;;;;;;;12.90;9.73;;;;;;;17.12;71.13;100522.19;5451481;26;20205;-64
2024/04/14 01:48:22;;;;;;;15.02;10.52;;;;;;;17.14;70.89;100510.28;5421158;26;19995;-64
2024/04/14 01:50:51;;;;;;;11.60;9.40;;;;;;;16.77;71.33;100510.38;5423403;26;20052;-64
2024/04/14 01:53:17;;;;;;;12.82;9.30;;;;;;;16.31;71.30;100509.59;5422282;26;20098;-64
2024/04/14 01:55:44;;;;;;;13.95;9.95;;;;;;;15.68;74.38;100513.41;5423128;26;19988;-64
2024/04/14 01:58:10;;;;;;;12.77;10.07;;;;;;;15.77;75.18;100513.19;5420148;26;20222;-64
2024/04/14 02:00:36;;;;;;;12.63;10.18;;;;;;;15.93;76.58;100513.06;5422402;26;20087;-64
2024/04/14 02:03:02;;;;;;;12.30;9.55;;;;;;;16.11;78.21;100518.13;5421283;26;20015;-64
2024/04/14 02:05:28;;;;;;;12.75;9.85;;;;;;;16.29;77.22;100515.13;5420935;26;20003;-63
2024/04/14 02:07:54;;;;;;;20.40;9.57;;;;;;;16.34;76.24;100511.91;5422059;26;19999;-64
2024/04/14 02:10:20;;;;;;;14.00;10.10;;;;;;;16.44;76.43;100504.47;5421003;26;20030;-64
2024/04/14 02:12:46;;;;;;;13.80;9.95;;;;;;;16.55;76.07;100496.84;5422322;26;19995;-65
2024/04/14 02:15:12;;;;;;;13.20;9.73;;;;;;;16.68;74.57;100506.13;5422272;26;20293;-64
2024/04/14 02:17:38;;;;;;;13.68;9.60;;;;;;;16.74;73.32;100500.88;5421190;26;20181;-64
2024/04/14 02:20:04;;;;;;;10.98;8.57;;;;;;;16.79;71.79;100501.16;5418572;26;20443;-64
2024/04/14 02:22:30;;;;;;;13.00;9.45;;;;;;;16.74;73.05;100505.41;5421996;26;19992;-64
2024/04/14 02:24:56;;;;;;;15.43;9.85;;;;;;;16.60;75.29;100510.50;5421073;26;20033;-64
2024/04/14 02:27:22;;;;;;;11.63;9.65;;;;;;;16.62;75.68;100502.28;5422801;26;20041;-64
2024/04/14 02:29:48;;;;;;;13.93;9.98;;;;;;;16.76;75.46;100506.06;5421268;26;20004;-64
2024/04/14 02:32:14;;;;;;;12.43;9.45;;;;;;;16.86;74.91;100506.59;5422663;26;19987;-64
2024/04/14 02:34:41;;;;;;;14.48;10.23;;;;;;;16.99;74.18;100506.78;5420176;26;20010;-64
2024/04/14 02:37:06;;;;;;;11.82;8.80;;;;;;;17.01;73.33;100502.09;5420473;26;20193;-64
2024/04/14 02:39:32;;;;;;;12.32;9.60;;;;;;;17.01;71.33;100506.59;5421619;26;20006;-64
2024/04/14 02:41:58;;;;;;;11.82;9.02;;;;;;;16.99;69.84;100505.97;5421608;26;19987;-64
2024/04/14 02:44:24;;;;;;;12.95;9.20;;;;;;;16.89;70.03;100512.41;5421900;26;20000;-63
2024/04/14 02:46:50;;;;;;;11.90;8.82;;;;;;;16.57;70.08;100510.03;5420197;26;20377;-64
2024/04/14 02:49:16;;;;;;;13.63;10.27;;;;;;;15.88;74.83;100515.44;5421808;26;20044;-64
2024/04/14 02:51:43;;;;;;;14.73;10.10;;;;;;;15.56;77.44;100515.59;5421172;26;19992;-63
2024/04/14 02:54:09;;;;;;;16.15;10.43;;;;;;;15.22;78.38;100518.59;5422115;26;19988;-64
2024/04/14 02:56:35;;;;;;;16.13;11.52;;;;;;;15.10;82.57;100518.13;5420103;26;19999;-64
2024/04/14 02:59:01;;;;;;;19.75;11.32;;;;;;;15.10;84.70;100512.81;5422571;26;20003;-64
2024/04/14 03:01:27;;;;;;;16.50;10.20;;;;;;;15.09;85.53;100508.47;5420353;26;20014;-64
2024/04/14 03:03:53;;;;;;;15.38;10.32;;;;;;;15.11;85.54;100511.81;5421088;26;20003;-64
2024/04/14 03:06:19;;;;;;;14.50;9.45;;;;;;;15.13;85.22;100515.13;5419651;26;19998;-64
2024/04/14 03:08:45;;;;;;;15.20;9.70;;;;;;;15.47;83.22;100505.97;5422464;26;20212;-63
2024/04/14 03:11:11;;;;;;;13.13;9.57;;;;;;;15.69;80.85;100521.25;5420118;26;20302;-64
2024/04/14 03:13:37;;;;;;;13.38;9.27;;;;;;;15.87;79.42;100520.97;5421813;26;20161;-64
2024/04/14 03:16:04;;;;;;;11.27;9.30;;;;;;;15.94;78.09;100525.41;5420755;26;20006;-64
2024/04/14 03:18:30;;;;;;;15.93;9.57;;;;;;;16.06;77.41;100530.34;5421846;26;20090;-64
2024/04/14 03:20:57;;;;;;;14.95;9.07;;;;;;;16.18;77.06;100527.06;5421483;26;20006;-63
2024/04/14 03:23:24;;;;;;;10.50;8.60;;;;;;;16.29;75.26;100523.97;5421859;26;19992;-64
2024/04/14 03:25:51;;;;;;;11.82;8.23;;;;;;;16.32;74.38;100536.16;5421850;26;19995;-64
2024/04/14 03:28:17;;;;;;;10.18;8.13;;;;;;;16.39;74.41;100533.59;5420257;26;20208;-65
2024/04/14 03:30:43;;;;;;;12.50;8.52;;;;;;;16.45;74.30;100535.53;5421897;26;20272;-64
2024/04/14 03:33:10;;;;;;;12.30;8.40;;;;;;;16.53;72.78;100538.13;5420007;26;19991;-65
2024/04/14 03:35:36;;;;;;;12.15;8.32;;;;;;;16.37;73.01;100532.94;5422260;26;20076;-64
2024/04/14 03:38:02;;;;;;;18.00;8.02;;;;;;;16.39;73.41;100530.91;5419500;26;20177;-64
2024/04/14 03:40:28;;;;;;;9.90;7.18;;;;;;;16.51;72.25;100543.66;5421849;26;20213;-64
2024/04/14 03:42:54;;;;;;;14.38;7.70;;;;;;;16.51;71.89;100541.00;5420070;26;19995;-64
2024/04/14 03:45:23;;;;;;;11.48;7.97;;;;;;;16.45;72.32;100543.56;5421102;26;20167;-64
2024/04/14 03:47:49;;;;;;;10.35;7.13;;;;;;;16.49;72.13;100536.84;5420478;26;19987;-64
2024/04/14 03:50:15;;;;;;;10.40;7.43;;;;;;;16.60;71.94;100526.53;5421298;26;19992;-64
2024/04/14 03:52:41;;;;;;;10.30;7.18;;;;;;;16.66;71.50;100527.72;5420376;26;19996;-64
2024/04/14 03:55:07;;;;;;;10.55;7.00;;;;;;;16.66;71.39;100525.03;5419680;26;20015;-64
2024/04/14 03:57:33;;;;;;;13.00;7.25;;;;;;;16.76;70.89;100527.44;5419513;26;20011;-64
2024/04/14 03:59:59;;;;;;;9.73;6.65;;;;;;;16.79;70.33;100529.75;5418555;26;19991;-64
2024/04/14 04:02:24;;;;;;;15.85;7.43;;;;;;;16.83;70.46;100537.22;5419888;26;19999;-64
2024/04/14 04:04:50;;;;;;;9.20;6.85;;;;;;;16.84;70.48;100536.22;5420343;26;19988;-64
2024/04/14 04:07:16;;;;;;;11.13;7.35;;;;;;;16.90;70.18;100534.66;5419218;26;20112;-64
2024/04/14 04:09:42;;;;;;;12.52;7.05;;;;;;;16.96;70.00;100535.75;5418884;26;19992;-64
2024/04/14 04:12:08;;;;;;;8.73;6.93;;;;;;;16.96;70.40;100535.75;5419759;26;20019;-64
2024/04/14 04:14:34;;;;;;;9.45;7.70;;;;;;;16.71;71.83;100533.34;5420695;26;19996;-64
2024/04/14 04:17:00;;;;;;;9.43;6.50;;;;;;;16.72;72.31;100537.69;5419484;26;20000;-65
2024/04/14 04:19:26;;;;;;;9.52;6.88;;;;;;;16.64;73.56;100544.88;5417590;26;20007;-64
2024/04/14 04:21:52;;;;;;;10.95;7.38;;;;;;;16.56;74.18;100543.94;5422028;26;20050;-64
2024/04/14 04:24:18;;;;;;;9.73;7.03;;;;;;;16.16;77.03;100542.47;5423248;26;20458;-64
2024/04/14 04:26:44;;;;;;;10.65;6.68;;;;;;;16.21;77.69;100541.91;5423412;26;20003;-64
2024/04/14 04:29:10;;;;;;;7.57;6.72;;;;;;;16.33;77.79;100542.31;5422083;26;19992;-64
2024/04/14 04:31:36;;;;;;;10.25;7.03;;;;;;;16.35;78.32;100543.81;5424138;26;20391;-64
2024/04/14 04:34:02;;;;;;;12.07;8.15;;;;;;;16.57;77.89;100542.09;5421355;26;20003;-64
2024/04/14 04:36:28;;;;;;;10.65;7.32;;;;;;;16.73;77.70;100546.53;5424300;26;19998;-65
2024/04/14 04:38:55;;;;;;;10.15;6.93;;;;;;;16.76;77.42;100541.66;5422375;26;20214;-64
2024/04/14 04:41:21;;;;;;;9.85;7.38;;;;;;;16.87;76.88;100543.88;5424935;26;20018;-64
2024/04/14 04:43:48;;;;;;;8.35;6.43;;;;;;;16.91;76.61;100541.66;5423113;26;20006;-63
2024/04/14 04:46:14;;;;;;;10.93;6.97;;;;;;;16.82;76.90;100548.09;5423840;26;20110;-64
2024/04/14 04:48:39;;;;;;;8.68;6.53;;;;;;;16.66;78.48;100553.63;5421830;26;19995;-64
2024/04/14 04:51:05;;;;;;;7.85;6.15;;;;;;;16.55;78.94;100558.34;5421966;26;19999;-64
2024/04/14 04:53:31;;;;;;;10.32;7.15;;;;;;;16.65;79.09;100563.47;5422944;26;20048;-63
2024/04/14 04:55:57;;;;;;;10.52;6.78;;;;;;;16.83;77.66;100557.78;5423911;26;20168;-64
2024/04/14 04:58:23;;;;;;;9.07;7.38;;;;;;;16.88;76.34;100558.91;5424874;26;19999;-65
2024/04/14 05:00:56;;;;;;;9.75;7.72;;;;;;;16.80;77.29;100556.31;5423510;26;20003;-64
2024/04/14 05:03:23;;;;;;;10.70;7.85;;;;;;;16.86;77.45;100560.94;5424889;26;20061;-63
2024/04/14 05:06:00;;;;;;;10.68;7.65;;;;;;;17.13;76.61;100564.00;5424149;26;20015;-64
2024/04/14 05:08:26;;;;;;;11.70;7.15;;;;;;;17.32;74.76;100546.53;5424599;26;20085;-64
2024/04/14 05:10:53;;;;;;;14.73;8.00;;;;;;;17.44;73.88;100561.09;5423020;26;20018;-64
2024/04/14 05:13:20;;;;;;;12.27;7.75;;;;;;;17.36;73.84;100559.38;5425403;26;20021;-64
2024/04/14 05:15:47;;;;;;;10.40;7.65;;;;;;;17.59;73.78;100558.41;5388491;26;19992;-64
2024/04/14 05:18:13;;;;;;;15.10;8.05;;;;;;;17.78;72.25;100561.38;5390263;26;20103;-64
2024/04/14 05:20:39;;;;;;;10.90;7.28;;;;;;;17.98;71.35;100563.44;5417922;26;19991;-64
2024/04/14 05:23:07;;;;;;;9.27;7.32;;;;;;;18.13;70.92;100558.84;5425005;26;19999;-64
2024/04/14 05:25:34;;;;;;;8.85;7.78;;;;;;;18.21;70.67;100564.09;5423187;26;20379;-64
2024/04/14 05:28:00;;;;;;;9.25;7.63;;;;;;;18.36;70.44;100569.38;5423028;26;19988;-64
2024/04/14 05:30:26;;;;;;;9.55;6.80;;;;;;;18.61;69.68;100567.13;5423368;26;19991;-64
2024/04/14 05:32:52;;;;;;;9.93;6.70;;;;;;;18.81;68.98;100568.16;5423856;26;19996;-64
2024/04/14 05:35:18;;;;;;;10.35;7.47;;;;;;;19.05;68.37;100562.34;5423645;26;20023;-64
2024/04/14 05:37:44;;;;;;;8.77;7.15;;;;;;;19.30;67.57;100556.47;5423460;26;19998;-64
2024/04/14 05:40:10;;;;;;;10.25;7.20;;;;;;;19.54;66.72;100566.75;5424210;26;20098;-65
2024/04/14 05:42:37;;;;;;;9.02;6.72;;;;;;;19.64;65.72;100559.13;5423718;26;19996;-64
2024/04/14 05:45:03;;;;;;;8.40;6.22;;;;;;;19.93;64.93;100566.06;5424632;26;20003;-64
2024/04/14 05:47:29;;;;;;;11.77;6.93;;;;;;;20.16;63.92;100567.56;5423500;26;20010;-62
2024/04/14 05:49:55;;;;;;;9.43;7.07;;;;;;;20.32;63.76;100562.63;5424617;26;19987;-62
2024/04/14 05:52:21;;;;;;;8.90;6.63;;;;;;;20.38;62.50;100566.34;5423582;26;19991;-62
2024/04/14 05:54:47;;;;;;;7.53;6.60;;;;;;;20.65;61.47;100564.53;5425109;26;19995;-64
2024/04/14 05:57:14;;;;;;;8.77;7.20;;;;;;;20.70;62.31;100562.84;5422249;26;20095;-63
2024/04/14 05:59:40;;;;;;;8.27;6.88;;;;;;;20.86;61.78;100569.72;5423753;26;20033;-62
2024/04/14 06:02:06;;;;;;;8.25;6.63;;;;;;;21.10;61.19;100564.69;5422233;26;20366;-65
2024/04/14 06:04:32;;;;;;;10.70;7.47;;;;;;;21.27;61.11;100565.91;5424214;26;19992;-64
2024/04/14 06:06:58;;;;;;;7.57;6.70;;;;;;;21.26;59.10;100564.25;5422789;26;20004;-63
2024/04/14 06:09:24;;;;;;;10.02;5.72;;;;;;;21.45;58.38;100557.97;5423953;26;19999;-64
2024/04/14 06:11:50;;;;;;;7.65;6.10;;;;;;;21.63;58.25;100570.75;5423048;26;20164;-63
2024/04/14 06:14:16;;;;;;;6.55;5.80;;;;;;;21.72;56.65;100558.69;5422798;26;20106;-63
2024/04/14 06:16:42;;;;;;;8.70;6.18;;;;;;;21.92;57.63;100559.44;5423660;26;20073;-63
2024/04/14 06:19:08;;;;;;;6.05;5.35;;;;;;;22.15;55.81;100556.22;5423574;26;20362;-63
2024/04/14 06:21:34;;;;;;;8.88;5.50;;;;;;;22.10;54.77;100560.59;5424188;26;20064;-64
2024/04/14 06:24:00;;;;;;;7.13;5.55;;;;;;;22.21;54.68;100557.22;5423387;26;20050;-64
2024/04/14 06:26:26;;;;;;;7.55;5.68;;;;;;;22.29;53.43;100559.66;5424005;26;20003;-64
2024/04/14 06:28:52;;;;;;;8.07;5.20;;;;;;;22.40;52.43;100552.72;5422935;26;19998;-64
2024/04/14 06:31:18;;;;;;;7.45;4.95;;;;;;;22.57;52.32;100554.66;5424937;26;19999;-64
2024/04/14 06:33:44;;;;;;;8.73;5.47;;;;;;;22.57;52.55;100556.50;5421845;26;19996;-63
2024/04/14 06:36:10;;;;;;;8.10;5.93;;;;;;;22.80;52.30;100554.06;5422586;26;19991;-64
2024/04/14 06:38:38;;;;;;;8.05;5.25;;;;;;;22.93;52.07;100559.34;5423048;26;20008;-65
2024/04/14 06:41:04;;;;;;;7.35;4.80;;;;;;;22.99;50.29;100548.69;5424459;26;19999;-64
2024/04/14 06:43:30;;;;;;;8.05;5.57;;;;;;;22.95;49.66;100559.13;5422549;26;20288;-65
2024/04/14 06:45:56;;;;;;;13.52;5.07;;;;;;;23.08;49.59;100550.88;5421875;26;20219;-64
2024/04/14 06:48:22;;;;;;;6.22;4.78;;;;;;;23.26;50.02;100558.16;5423518;26;20000;-63
2024/04/14 06:50:48;;;;;;;7.75;5.07;;;;;;;23.40;49.22;100562.38;5421726;26;20007;-64
2024/04/14 06:53:14;;;;;;;7.28;5.07;;;;;;;23.65;48.87;100556.06;5422895;26;20003;-64
2024/04/14 06:55:44;;;;;;;10.30;5.32;;;;;;;23.76;47.85;100555.28;5422155;26;20057;-64
2024/04/14 06:58:10;;;;;;;9.23;5.20;;;;;;;23.78;46.89;100550.47;5422823;26;19999;-62
2024/04/14 07:00:36;;;;;;;8.52;4.80;;;;;;;23.89;46.85;100539.69;5421568;26;19995;-62
2024/04/14 07:03:02;;;;;;;5.57;4.38;;;;;;;24.05;47.36;100551.78;5421938;26;20002;-62
2024/04/14 07:05:28;;;;;;;6.32;4.70;;;;;;;23.99;46.30;100546.47;5421165;26;19995;-63
2024/04/14 07:07:54;;;;;;;5.68;4.30;;;;;;;24.12;44.34;100547.09;5423719;26;19995;-63
2024/04/14 07:10:20;;;;;;;5.00;4.43;;;;;;;24.19;46.36;100550.53;5421378;26;20011;-63
2024/04/14 07:12:46;;;;;;;7.85;5.00;;;;;;;24.46;44.84;100544.72;5422547;26;19987;-63
2024/04/14 07:15:12;;;;;;;7.82;4.95;;;;;;;24.58;44.27;100547.44;5420646;26;20008;-62
2024/04/14 07:17:38;;;;;;;5.28;4.00;;;;;;;24.74;43.08;100549.44;5423160;26;20340;-62
2024/04/14 07:20:04;;;;;;;6.82;4.38;;;;;;;24.78;42.46;100545.22;5421488;26;20007;-62
2024/04/14 07:22:30;;;;;;;6.70;4.32;;;;;;;24.61;42.77;100541.56;5422685;26;20356;-62
2024/04/14 07:24:58;;;;;;;6.53;4.00;;;;;;;24.84;42.51;100538.84;5422115;26;20011;-64
2024/04/14 07:27:24;;;;;;;9.73;4.55;;;;;;;25.00;42.02;100542.78;5421868;26;19996;-63
2024/04/14 07:29:50;;;;;;;8.15;5.30;;;;;;;25.12;41.79;100533.56;5422826;26;20010;-64
2024/04/14 07:32:16;;;;;;;11.80;5.18;;;;;;;25.23;41.69;100528.38;5421968;26;20002;-64
2024/04/14 07:34:42;;;;;;;7.63;4.25;;;;;;;25.41;40.53;100533.63;5414852;26;20000;-63
2024/04/14 07:37:08;;;;;;;8.23;4.50;;;;;;;25.35;41.53;100534.59;5385261;26;19992;-64
2024/04/14 07:39:34;;;;;;;7.63;4.03;;;;;;;25.44;40.37;100530.44;5389737;26;20154;-64
2024/04/14 07:42:04;;;;;;;5.15;4.22;;;;;;;25.41;39.37;100528.19;5421731;26;20106;-63
2024/04/14 07:44:30;;;;;;;5.72;4.07;;;;;;;25.34;40.22;100532.94;5423474;26;20015;-64
2024/04/14 07:46:56;;;;;;;5.38;3.65;;;;;;;25.66;39.88;100527.91;5420379;26;20162;-63
2024/04/14 07:49:23;;;;;;;4.28;3.88;;;;;;;25.81;39.08;100532.78;5423763;26;20006;-63
2024/04/14 07:51:49;;;;;;;4.72;4.20;;;;;;;25.85;38.86;100526.63;5421069;26;20313;-64
2024/04/14 07:54:15;;;;;;;6.35;3.75;;;;;;;25.75;38.35;100527.28;5421855;26;19994;-64
2024/04/14 07:56:41;;;;;;;8.63;4.15;;;;;;;25.81;38.21;100532.78;5421563;26;20161;-63
2024/04/14 07:59:07;;;;;;;7.55;4.03;;;;;;;26.04;39.14;100530.81;5426594;26;19995;-63
2024/04/14 08:01:33;;;;;;;7.40;4.20;;;;;;;25.92;38.51;100521.88;5424497;26;19999;-64
2024/04/14 08:04:01;;;;;;;4.57;3.70;;;;;;;26.06;38.38;100531.41;5425102;26;20023;-63
2024/04/14 08:06:27;;;;;;;8.40;4.32;;;;;;;26.30;37.87;100518.50;5425106;26;20003;-63
2024/04/14 08:08:53;;;;;;;8.32;3.90;;;;;;;26.31;37.46;100525.56;5424541;26;20276;-63
2024/04/14 08:11:21;;;;;;;6.55;4.07;;;;;;;26.54;36.84;100521.88;5424786;26;19999;-63
2024/04/14 08:13:47;;;;;;;4.55;3.20;;;;;;;26.51;35.15;100519.66;5422685;26;20020;-64
2024/04/14 08:16:13;;;;;;;5.18;3.45;;;;;;;26.45;35.79;100526.09;5423429;26;19991;-64
2024/04/14 08:18:39;;;;;;;6.10;3.33;;;;;;;26.39;35.80;100527.91;5423061;26;20002;-63
2024/04/14 08:21:05;;;;;;;10.65;4.45;;;;;;;26.43;35.21;100525.53;5425007;26;19995;-63
2024/04/14 08:23:31;;;;;;;5.35;3.95;;;;;;;26.42;35.79;100520.34;5423866;26;20400;-64
2024/04/14 08:26:00;;;;;;;4.35;3.33;;;;;;;26.46;35.63;100508.72;5425883;26;20007;-63
2024/04/14 08:28:25;;;;;;;4.45;3.58;;;;;;;26.60;34.37;100515.47;5423843;26;20102;-63
2024/04/14 08:30:51;;;;;;;3.83;3.42;;;;;;;26.72;35.40;100518.91;5426078;26;19991;-64
2024/04/14 08:33:17;;;;;;;5.55;3.90;;;;;;;26.59;34.20;100513.00;5424893;26;19999;-64
2024/04/14 08:35:43;;;;;;;5.50;3.22;;;;;;;26.72;34.49;100508.03;5424450;26;19987;-64
2024/04/14 08:38:09;;;;;;;5.10;3.28;;;;;;;26.60;34.29;100511.94;5424493;26;19999;-63
2024/04/14 08:40:35;;;;;;;5.38;4.32;;;;;;;26.72;35.43;100510.75;5423453;26;19998;-64
2024/04/14 08:43:02;;;;;;;4.78;3.17;;;;;;;26.73;34.28;100506.97;5425026;26;20174;-64
2024/04/14 08:45:32;;;;;;;4.35;3.35;;;;;;;26.72;34.10;100501.78;5424613;26;20156;-64
2024/04/14 08:48:02;;;;;;;6.82;4.72;;;;;;;26.78;34.44;100506.22;5424769;26;20000;-64
2024/04/14 08:50:29;;;;;;;5.30;2.75;;;;;;;26.73;33.82;100501.53;5424118;26;20065;-64
2024/04/14 08:52:55;;;;;;;7.35;4.25;;;;;;;26.82;33.99;100510.06;5424946;26;20190;-65
2024/04/14 08:55:21;;;;;;;6.68;4.07;;;;;;;27.01;33.91;100497.88;5423181;26;19999;-65
2024/04/14 08:57:47;;;;;;;5.75;3.60;;;;;;;27.10;34.34;100497.47;5424879;26;20003;-65
2024/04/14 09:00:18;;;;;;;3.35;2.75;;;;;;;27.20;34.36;100492.16;5423947;26;20195;-64
2024/04/14 09:02:45;;;;;;;5.28;3.83;;;;;;;27.27;34.38;100495.50;5425528;26;19991;-64
2024/04/14 09:05:15;;;;;;;6.50;3.50;;;;;;;27.42;34.02;100487.50;5423841;26;19995;-64
2024/04/14 09:07:44;;;;;;;6.00;3.50;;;;;;;27.42;33.90;100481.25;5425139;26;19996;-64
2024/04/14 09:10:10;;;;;;;3.88;3.00;;;;;;;27.37;32.18;100490.19;5422885;26;19999;-64
2024/04/14 09:12:36;;;;;;;7.30;3.60;;;;;;;27.39;32.36;100493.47;5424970;26;20226;-64
2024/04/14 09:15:05;;;;;;;6.25;3.70;;;;;;;27.46;31.18;100485.09;5424119;26;20006;-64
2024/04/14 09:17:34;;;;;;;7.80;4.45;;;;;;;27.39;32.35;100487.19;5424262;26;19995;-64
2024/04/14 09:20:00;;;;;;;4.97;3.60;;;;;;;27.40;30.89;100486.94;5423385;26;20003;-64
2024/04/14 09:22:26;;;;;;;3.72;3.42;;;;;;;27.46;32.31;100480.50;5423461;26;20022;-64
2024/04/14 09:24:52;;;;;;;10.07;3.88;;;;;;;27.54;32.71;100473.75;5424079;26;19995;-64
2024/04/14 09:27:18;;;;;;;5.35;3.50;;;;;;;27.53;32.67;100469.41;5423354;26;20013;-64
2024/04/14 09:29:44;;;;;;;7.38;3.90;;;;;;;27.60;32.96;100470.88;5424331;26;20257;-64
2024/04/14 09:32:10;;;;;;;3.90;3.03;;;;;;;27.39;31.10;100460.81;5422925;26;19988;-64
2024/04/14 09:34:38;;;;;;;4.28;3.00;;;;;;;27.38;30.76;100464.63;5424462;26;20012;-65
2024/04/14 09:37:12;;;;;;;3.45;3.03;;;;;;;27.29;30.60;100460.72;5422806;26;20010;-63
2024/04/14 09:39:39;;;;;;;4.72;3.13;;;;;;;27.22;30.98;100455.47;5424278;26;20010;-64
2024/04/14 09:42:05;;;;;;;3.40;3.05;;;;;;;27.12;28.69;100459.97;5422411;26;20025;-65
2024/04/14 09:44:34;;;;;;;5.78;3.25;;;;;;;27.04;29.24;100453.88;5425222;26;19999;-64
2024/04/14 09:47:01;;;;;;;6.60;2.85;;;;;;;26.89;30.67;100453.66;5388058;26;20050;-64
2024/04/14 09:49:29;;;;;;;3.58;3.00;;;;;;;26.84;31.48;100442.72;5389628;26;20095;-64
2024/04/14 09:51:56;;;;;;;3.95;2.95;;;;;;;26.81;32.22;100447.84;5418503;26;20094;-65
2024/04/14 09:54:23;;;;;;;5.47;3.33;;;;;;;26.79;31.79;100441.81;5424727;26;20024;-64
2024/04/14 09:56:49;;;;;;;6.38;3.40;;;;;;;26.81;32.16;100435.06;5423249;26;20210;-64
2024/04/14 09:59:15;;;;;;;4.93;2.95;;;;;;;26.83;31.12;100424.78;5424323;26;19995;-63
2024/04/14 10:01:45;;;;;;;3.50;2.95;;;;;;;26.82;31.18;100428.56;5423668;26;20102;-62
2024/04/14 10:04:12;;;;;;;3.92;3.15;;;;;;;26.83;32.30;100432.09;5424188;26;20003;-62
2024/04/14 10:06:40;;;;;;;3.97;3.03;;;;;;;26.96;31.49;100427.09;5423705;26;19996;-62
2024/04/14 10:09:11;;;;;;;4.63;3.38;;;;;;;27.02;32.42;100426.13;5423808;26;20010;-63
2024/04/14 10:11:37;;;;;;;3.72;2.92;;;;;;;27.04;31.67;100417.72;5423714;26;19999;-63
2024/04/14 10:14:03;;;;;;;3.70;3.05;;;;;;;27.09;31.88;100417.81;5422594;26;19996;-63
2024/04/14 10:16:29;;;;;;;4.13;3.50;;;;;;;27.03;32.56;100416.91;5423994;26;20224;-63
2024/04/14 10:19:03;;;;;;;5.03;3.17;;;;;;;27.08;31.99;100412.63;5421695;26;20145;-63
2024/04/14 10:21:30;;;;;;;4.82;2.95;;;;;;;27.06;30.07;100406.63;5424011;26;20009;-63
2024/04/14 10:23:56;;;;;;;4.07;3.67;;;;;;;26.96;30.89;100402.66;5422384;26;20014;-63
2024/04/14 10:26:23;;;;;;;3.35;2.85;;;;;;;26.96;30.94;100404.53;5423380;26;20049;-63
2024/04/14 10:28:56;;;;;;;3.50;2.80;;;;;;;26.88;31.09;100396.84;5422911;26;19991;-64
2024/04/14 10:31:26;;;;;;;4.03;2.95;;;;;;;26.83;31.70;100392.16;5424171;26;20203;-63
2024/04/14 10:34:11;;;;;;;5.15;2.90;;;;;;;26.83;30.00;100386.72;5422038;26;20058;-63
2024/04/14 10:36:41;;;;;;;4.93;3.03;;;;;;;26.79;31.26;100390.19;5424540;26;20236;-63
2024/04/14 10:39:14;;;;;;;3.50;3.03;;;;;;;26.78;31.63;100389.38;5422313;26;19996;-63
2024/04/14 10:41:40;;;;;;;4.18;3.20;;;;;;;26.78;31.99;100391.28;5423984;26;19995;-63
2024/04/14 10:44:18;;;;;;;5.05;3.10;;;;;;;26.95;32.69;100390.13;5421053;26;20000;-64
2024/04/14 10:46:48;;;;;;;6.78;4.35;;;;;;;27.01;31.27;100388.31;5423784;26;20007;-65
2024/04/14 10:49:15;;;;;;;4.78;3.63;;;;;;;27.00;30.65;100381.25;5422707;26;20202;-63
2024/04/14 10:51:42;;;;;;;3.90;3.00;;;;;;;26.92;31.03;100377.06;5423961;26;20261;-63
2024/04/14 10:54:08;;;;;;;4.13;2.88;;;;;;;26.94;31.13;100374.91;5422361;26;19995;-63
2024/04/14 10:56:34;;;;;;;5.55;3.20;;;;;;;27.06;30.93;100374.81;5423037;26;20258;-63
2024/04/14 10:59:00;;;;;;;5.13;2.63;;;;;;;27.10;30.99;100373.25;5423073;26;20101;-64
2024/04/14 11:01:27;;;;;;;6.90;5.53;;;;;;;27.03;30.49;100372.59;5421738;26;19991;-64
2024/04/14 11:03:54;;;;;;;7.32;5.07;;;;;;;27.02;31.39;100371.75;5423143;26;20002;-64
2024/04/14 11:06:21;;;;;;;10.20;8.02;;;;;;;27.03;31.23;100375.31;5421946;26;20289;-64
2024/04/14 11:08:48;;;;;;;4.85;2.60;;;;;;;27.02;30.40;100369.03;5423131;26;20128;-64
2024/04/14 11:11:14;;;;;;;11.07;4.68;;;;;;;26.97;31.68;100362.69;5421698;26;20060;-64
2024/04/14 11:13:42;;;;;;;3.63;2.70;;;;;;;27.01;31.48;100358.44;5423014;26;20024;-64
2024/04/14 11:16:08;;;;;;;4.28;3.00;;;;;;;26.89;30.74;100361.25;5421339;26;20002;-64
2024/04/14 11:18:37;;;;;;;5.10;2.80;;;;;;;26.93;31.03;100347.97;5423581;26;19991;-64